AirNav   Air Wisconsin pilot careers
 
 478 users online  

57AL Baswell Airport
Loxley, Alabama, USA

GOING TO LOXLEY?


FAA INFORMATION EFFECTIVE 28 MARCH 2019

Location

FAA Identifier: 57AL
Lat/Long: 30-39-11.5000N / 087-43-25.5000W
30-39.191667N / 087-43.425000W
30.6531944 / -87.7237500
(estimated)
Elevation: 190 ft. / 58 m (estimated)
From city: 3 miles NE of LOXLEY, AL
Time zone: UTC -5 (UTC -6 during Standard Time)
Zip code: 36551

Airport Operations

Airport use: Private use. Permission required prior to landing
Activation date: 10/2005
Control tower: no
ARTCC: HOUSTON CENTER
FSS: ANNISTON FLIGHT SERVICE STATION
Attendance: UNATNDD
Wind indicator: yes
Segmented circle: no

Airport Communications

WX AWOS-3PT at CQF (14 nm SW): 118.425 (251-928-3242)
WX ASOS at BFM (18 nm W): PHONE 251-431-6762

Nearby radio navigation aids

VOR radial/distance  VOR name  Freq  Var
BFMr078/17.3BROOKLEY VORTAC112.8004E
NUNr297/(22.8)SAUFLEY VOR108.8001E
SJIr093/33.1SEMMES VORTAC115.3005E

 
NDB name  Hdg/Dist  Freq  Var  ID
WISLE103/30.624801WMOB -- --- -...
PICKENS297/31.032602WPKZ .--. -.- --..

Airport Services

Runway Information

Runway 15/33

Dimensions: 1400 x 75 ft. / 427 x 23 m
Surface: turf
RUNWAY 15  RUNWAY 33
Traffic pattern: leftleft
Obstructions: 30 ft. pline, marked, 20 ft. from runway30 ft. pline, marked, 50 ft. from runway

Airport Ownership and Management from official FAA records

Ownership: Privately-owned
Owner: MIKE T. BASWELL
23219 STYRON LANE
ROBERTSDALE, AL 36567
Phone 251-213-0395
Manager: MIKE T. BASWELL
23219 STYRON LANE
ROBERTSDALE, AL 36567
Phone 251-213-0395

Airport Operational Statistics

Aircraft based on the field: 1
Single engine airplanes: 1
    

Instrument Procedures

There are no published instrument procedures at 57AL.

Some nearby airports with instrument procedures:

5R4 - Foley Municipal Airport (14 nm S)
1R8 - Bay Minette Municipal Airport (14 nm N)
KCQF - H L Sonny Callahan Airport (14 nm SW)
KBFM - Mobile Downtown Airport (18 nm W)
KJKA - Jack Edwards National Airport (22 nm S)
 
Loc | Ops | Rwys | IFR | FBO | Links
Com | Nav | Svcs | Stats | Notes

Continental Motors
AirBoss

 
Area around 57AL (Baswell Airport)
 
Road maps at: MapQuest Bing Google
 
Aerial photo
WARNING: Photo may not be current or correct
Aerial photo of 57AL (Baswell Airport)
Photo by Mike Baswell
Photo taken 09-Mar-2006

Do you have a better or more recent aerial photo of Baswell Airport that you would like to share? If so, please send us your photo.

 
Sectional chart

 
Airport distance calculator
Flying to Baswell Airport? Find the distance to fly.

From to 57AL

Sunrise and sunset
Times for 23-Apr-2019
 Local
(UTC-5)
 Zulu
(UTC)
Morning civil twilight05:5110:51
Sunrise06:1611:16
Sunset19:2300:23
Evening civil twilight19:4800:48

Current date and time
Zulu (UTC)  23-Apr-2019 10:22:57
Local (UTC-5)  23-Apr-2019 05:22:57
 
METAR
KCQF 
14nm SW 
230955Z AUTO 00000KT 10SM CLR 09/09 A3012 RMK AO2
KBFM 
18nm W 
230953Z 00000KT 10SM CLR 12/12 A3013 RMK AO2 SLP203 T01220122
KJKA 
22nm S 
230955Z AUTO 00000KT 3SM BR CLR 10/10 A3011 RMK AO2 T00980098
KMOB 
27nm W 
230956Z AUTO 00000KT 10SM CLR 11/10 A3012 RMK AO2 SLP197 T01110100
KNPA 
28nm SE 
230956Z AUTO 01003KT 10SM CLR 11/10 A3010 RMK AO2 SLP194 T01060100 $
TAF
KBFM 
18nm W 
230520Z 2306/2406 25003KT P6SM SCT250 FM231600 12006KT P6SM SCT250
NOTAMs
Click for the latest NOTAMs
NOTAMs are issued by the DoD/FAA and will open in a separate window not controlled by AirNav.

 

 
 

Would you like to see your business listed on this page?

 If your business provides an interesting product or service to pilots, flight crews, aircraft, or users of the Baswell Airport, you should consider listing it here.  To start the listing process, click on the button below
 
Add a business
 

Other Pages about Baswell Airport

Update a link
 
Copyright © AirNav, LLC. All rights reserved. Privacy Policy  Contact